createdAt,value
2019-03-23T00:00:35.481Z,84.72
2019-03-23T00:03:05.363Z,87.05
2019-03-23T00:05:34.983Z,81.70
2019-03-23T00:08:05.149Z,80.85
2019-03-23T00:10:36.759Z,82.62
2019-03-23T00:13:06.387Z,87.22
2019-03-23T00:15:35.995Z,79.05
2019-03-23T00:18:09.659Z,69.00
2019-03-23T00:20:39.313Z,67.50
2019-03-23T00:23:08.993Z,72.27
2019-03-23T00:25:39.433Z,67.32
2019-03-23T00:28:09.032Z,66.60
2019-03-23T00:30:38.643Z,63.13
2019-03-23T00:33:08.279Z,63.40
2019-03-23T00:35:38.542Z,63.68
2019-03-23T00:38:08.237Z,64.60
2019-03-23T00:40:38.019Z,65.67
2019-03-23T00:43:07.683Z,69.22
2019-03-23T00:45:37.259Z,68.57
2019-03-23T00:48:06.964Z,70.62
2019-03-23T00:50:36.604Z,74.17
2019-03-23T00:53:06.236Z,72.62
2019-03-23T00:55:35.899Z,78.45
2019-03-23T00:58:05.524Z,75.60
2019-03-23T01:00:35.219Z,77.70
2019-03-23T01:03:04.848Z,74.92
2019-03-23T01:05:34.490Z,76.35
2019-03-23T01:08:04.187Z,79.40
2019-03-23T01:10:33.871Z,76.72
2019-03-23T01:13:04.316Z,77.72
2019-03-23T01:15:33.941Z,77.47
2019-03-23T01:18:03.574Z,78.42
2019-03-23T01:20:33.294Z,74.17
2019-03-23T01:23:02.879Z,75.65
2019-03-23T01:25:32.506Z,73.83
2019-03-23T01:28:02.123Z,75.45
2019-03-23T01:30:31.746Z,71.15
2019-03-23T01:33:01.354Z,70.05
2019-03-23T01:35:30.975Z,65.85
2019-03-23T01:38:00.616Z,64.60
2019-03-23T01:40:30.248Z,67.50
2019-03-23T01:42:59.859Z,68.78
2019-03-23T01:45:29.467Z,67.92
2019-03-23T01:47:59.073Z,70.80
2019-03-23T01:50:28.683Z,68.75
2019-03-23T01:52:58.293Z,63.63
2019-03-23T01:55:27.915Z,60.20
2019-03-23T01:57:57.521Z,59.40
2019-03-23T02:00:27.229Z,61.00
2019-03-23T02:02:56.846Z,62.67
2019-03-23T02:05:26.540Z,60.78
2019-03-23T02:07:56.087Z,58.55
2019-03-23T02:10:25.718Z,55.23
2019-03-23T02:12:55.332Z,53.28
2019-03-23T02:15:25.297Z,49.93
2019-03-23T02:17:55.127Z,47.38
2019-03-23T02:20:24.818Z,48.60
2019-03-23T02:22:54.608Z,45.52
2019-03-23T02:25:24.225Z,50.00
2019-03-23T02:27:53.833Z,47.53
2019-03-23T02:30:23.549Z,44.88
2019-03-23T02:32:53.344Z,46.83
2019-03-23T02:35:22.947Z,47.60
2019-03-23T02:37:52.552Z,47.83
2019-03-23T02:40:22.171Z,47.25
2019-03-23T02:42:51.805Z,47.75
2019-03-23T02:45:21.394Z,48.85
2019-03-23T02:47:51.024Z,47.45
2019-03-23T02:50:20.657Z,47.23
2019-03-23T02:52:51.390Z,48.35
2019-03-23T02:55:21.003Z,47.60
2019-03-23T02:57:50.612Z,50.33
2019-03-23T03:00:20.230Z,47.15
2019-03-23T03:02:49.837Z,47.25
2019-03-23T03:05:19.504Z,48.20
2019-03-23T03:07:49.114Z,47.35
2019-03-23T03:10:30.721Z,46.88
2019-03-23T03:13:00.328Z,46.80
2019-03-23T03:15:29.944Z,47.88
2019-03-23T03:17:59.557Z,46.70
2019-03-23T03:20:29.189Z,48.52
2019-03-23T03:22:58.822Z,46.90
2019-03-23T03:25:28.453Z,46.20
2019-03-23T03:27:58.056Z,47.55
2019-03-23T03:30:27.695Z,46.30
2019-03-23T03:32:57.381Z,45.25
2019-03-23T03:35:27.063Z,47.53
2019-03-23T03:37:57.369Z,46.33
2019-03-23T03:40:27.432Z,47.78
2019-03-23T03:42:57.131Z,48.63
2019-03-23T03:45:28.426Z,46.77
2019-03-23T03:47:58.093Z,46.35
2019-03-23T03:50:27.718Z,45.35
2019-03-23T03:52:57.483Z,47.30
2019-03-23T03:55:27.102Z,46.45
2019-03-23T03:57:56.727Z,46.15
2019-03-23T04:00:27.867Z,48.17
2019-03-23T04:02:57.592Z,48.08
2019-03-23T04:05:27.207Z,48.20
2019-03-23T04:08:09.966Z,47.30
2019-03-23T04:10:28.059Z,49.50
2019-03-23T04:12:57.823Z,50.23
2019-03-23T04:15:27.489Z,47.88
2019-03-23T04:17:57.100Z,50.78
2019-03-23T04:20:26.708Z,49.00
2019-03-23T04:22:56.328Z,52.30
2019-03-23T04:25:26.011Z,52.30
2019-03-23T04:27:55.623Z,53.48
2019-03-23T04:30:25.255Z,53.90
2019-03-23T04:32:54.890Z,53.83
2019-03-23T04:35:24.507Z,57.27
2019-03-23T04:37:54.139Z,55.58
2019-03-23T04:40:25.386Z,54.85
2019-03-23T04:42:55.048Z,55.28
2019-03-23T04:45:24.665Z,55.95
2019-03-23T04:47:54.311Z,53.92
2019-03-23T04:50:23.928Z,59.85
2019-03-23T04:52:53.555Z,56.15
2019-03-23T04:55:23.164Z,54.75
2019-03-23T04:57:52.827Z,56.68
2019-03-23T05:00:22.514Z,58.52
2019-03-23T05:02:52.139Z,59.35
2019-03-23T05:05:21.748Z,59.00
2019-03-23T05:07:51.387Z,61.15
2019-03-23T05:10:21.096Z,61.18
2019-03-23T05:12:50.729Z,61.35
2019-03-23T05:15:20.341Z,63.05
2019-03-23T05:17:49.962Z,61.63
2019-03-23T05:20:30.922Z,60.67
2019-03-23T05:23:00.627Z,63.98
2019-03-23T05:25:30.768Z,64.75
2019-03-23T05:28:00.399Z,63.45
2019-03-23T05:30:30.024Z,65.67
2019-03-23T05:32:59.679Z,65.57
2019-03-23T05:35:29.293Z,64.53
2019-03-23T05:37:58.972Z,66.30
2019-03-23T05:40:28.606Z,66.87
2019-03-23T05:42:58.242Z,65.90
2019-03-23T05:45:27.840Z,65.72
2019-03-23T05:47:57.475Z,66.42
2019-03-23T05:50:27.089Z,65.60
2019-03-23T05:52:56.719Z,62.30
2019-03-23T05:55:26.327Z,59.90
2019-03-23T05:57:56.018Z,62.53
2019-03-23T06:00:25.680Z,64.90
2019-03-23T06:02:55.308Z,66.07
2019-03-23T06:05:24.924Z,60.17
2019-03-23T06:07:54.582Z,60.67
2019-03-23T06:10:24.215Z,57.80
2019-03-23T06:12:53.853Z,57.15
2019-03-23T06:15:23.483Z,58.00
2019-03-23T06:17:53.095Z,55.67
2019-03-23T06:20:22.765Z,57.08
2019-03-23T06:22:52.448Z,59.20
2019-03-23T06:25:22.073Z,57.40
2019-03-23T06:27:51.683Z,54.53
2019-03-23T06:30:21.328Z,46.23
2019-03-23T06:32:50.967Z,51.70
2019-03-23T06:35:20.671Z,52.73
2019-03-23T06:37:50.285Z,52.13
2019-03-23T06:40:19.966Z,54.23
2019-03-23T06:42:59.421Z,53.20
2019-03-23T06:45:21.203Z,54.35
2019-03-23T06:47:50.861Z,54.18
2019-03-23T06:50:20.475Z,54.80
2019-03-23T06:52:50.101Z,52.65
2019-03-23T06:55:19.717Z,53.17
2019-03-23T06:57:49.347Z,53.98
2019-03-23T07:00:19.530Z,52.33
2019-03-23T07:02:49.140Z,52.75
2019-03-23T07:05:18.752Z,52.78
2019-03-23T07:07:48.420Z,52.23
2019-03-23T07:10:18.050Z,54.03
2019-03-23T07:12:47.647Z,71.87
2019-03-23T07:15:20.221Z,53.10
2019-03-23T07:17:48.511Z,52.03
2019-03-23T07:20:19.294Z,54.45
2019-03-23T07:22:48.904Z,53.25
2019-03-23T07:25:18.611Z,55.38
2019-03-23T07:27:48.262Z,57.80
2019-03-23T07:30:18.523Z,60.08
2019-03-23T07:32:48.179Z,56.15
2019-03-23T07:35:17.852Z,58.92
2019-03-23T07:37:47.548Z,57.40
2019-03-23T07:40:17.762Z,57.83
2019-03-23T07:42:47.422Z,59.42
2019-03-23T07:45:17.148Z,57.67
2019-03-23T07:47:46.771Z,54.98
2019-03-23T07:50:16.539Z,57.75
2019-03-23T07:52:46.231Z,59.60
2019-03-23T07:55:16.718Z,55.98
2019-03-23T07:57:46.747Z,57.70
2019-03-23T08:00:21.248Z,57.53
2019-03-23T08:02:50.941Z,55.58
2019-03-23T08:05:21.914Z,54.88
2019-03-23T08:07:51.538Z,55.55
2019-03-23T08:10:32.661Z,55.45
2019-03-23T08:13:02.510Z,55.25
2019-03-23T08:15:32.198Z,55.20
2019-03-23T08:18:02.322Z,53.30
2019-03-23T08:20:32.142Z,52.50
2019-03-23T08:23:01.918Z,52.13
2019-03-23T08:25:31.573Z,51.42
2019-03-23T08:28:02.269Z,51.85
2019-03-23T08:30:31.887Z,52.27
2019-03-23T08:33:01.496Z,52.80
2019-03-23T08:35:31.188Z,51.80
2019-03-23T08:38:00.836Z,50.80
2019-03-23T08:40:30.546Z,49.45
2019-03-23T08:43:00.521Z,46.23
2019-03-23T08:45:30.338Z,47.27
2019-03-23T08:48:00.071Z,45.92
2019-03-23T08:50:30.206Z,44.58
2019-03-23T08:52:59.816Z,48.38
2019-03-23T08:55:30.853Z,49.13
2019-03-23T08:58:00.525Z,48.23
2019-03-23T09:00:30.263Z,47.78
2019-03-23T09:03:03.774Z,48.80
2019-03-23T09:05:33.727Z,44.93
2019-03-23T09:08:04.630Z,44.98
2019-03-23T09:10:34.338Z,46.13
2019-03-23T09:13:04.118Z,47.15
2019-03-23T09:15:33.798Z,47.70
2019-03-23T09:18:05.188Z,45.45
2019-03-23T09:20:34.891Z,45.03
2019-03-23T09:23:04.620Z,48.33
2019-03-23T09:25:34.262Z,47.90
2019-03-23T09:28:04.198Z,47.45
2019-03-23T09:30:33.840Z,45.65
2019-03-23T09:33:03.662Z,48.60
2019-03-23T09:35:33.338Z,47.25
2019-03-23T09:38:03.180Z,47.65
2019-03-23T09:40:32.806Z,45.12
2019-03-23T09:43:02.514Z,46.90
2019-03-23T09:45:32.123Z,45.20
2019-03-23T09:48:03.629Z,45.23
2019-03-23T09:50:33.309Z,45.25
2019-03-23T09:53:03.587Z,43.83
2019-03-23T09:55:33.234Z,43.73
2019-03-23T09:58:02.939Z,42.60
2019-03-23T10:00:32.636Z,43.90
2019-03-23T10:03:02.281Z,42.40
2019-03-23T10:05:31.985Z,44.63
2019-03-23T10:08:02.441Z,45.08
2019-03-23T10:10:32.111Z,43.70
2019-03-23T10:13:01.811Z,46.58
2019-03-23T10:15:31.456Z,48.20
2019-03-23T10:18:03.524Z,46.40
2019-03-23T10:20:33.148Z,44.63
2019-03-23T10:23:03.693Z,44.03
2019-03-23T10:25:33.300Z,44.53
2019-03-23T10:28:02.905Z,45.40
2019-03-23T10:30:32.521Z,44.55
2019-03-23T10:33:02.266Z,44.30
2019-03-23T10:35:31.932Z,42.58
2019-03-23T10:38:03.003Z,41.98
2019-03-23T10:40:33.044Z,40.17
2019-03-23T10:43:02.900Z,41.83
2019-03-23T10:45:40.064Z,46.02
2019-03-23T10:48:03.933Z,44.18
2019-03-23T10:50:33.542Z,45.17
2019-03-23T10:53:03.179Z,45.90
2019-03-23T10:55:32.784Z,46.83
2019-03-23T10:58:03.119Z,47.15
2019-03-23T11:00:32.796Z,50.52
2019-03-23T11:03:03.548Z,49.85
2019-03-23T11:05:33.142Z,48.58
2019-03-23T11:08:02.767Z,49.77
2019-03-23T11:10:41.471Z,50.38
2019-03-23T11:13:05.234Z,49.95
2019-03-23T11:15:34.840Z,46.45
2019-03-23T11:18:04.530Z,48.23
2019-03-23T11:20:34.158Z,48.87
2019-03-23T11:23:03.833Z,47.23
2019-03-23T11:25:33.607Z,46.83
2019-03-23T11:28:03.202Z,47.67
2019-03-23T11:30:32.823Z,46.08
2019-03-23T11:33:02.431Z,47.00
2019-03-23T11:35:32.110Z,47.67
2019-03-23T11:38:02.685Z,49.10
2019-03-23T11:40:32.425Z,47.15
2019-03-23T11:43:02.041Z,46.65
2019-03-23T11:45:31.727Z,50.17
2019-03-23T11:48:01.329Z,48.05
2019-03-23T11:50:31.025Z,48.35
2019-03-23T11:53:00.623Z,48.08
2019-03-23T11:55:30.328Z,48.60
2019-03-23T11:57:59.931Z,49.83
2019-03-23T12:00:29.545Z,48.08
2019-03-23T12:02:59.186Z,47.85
2019-03-23T12:05:28.792Z,50.58
2019-03-23T12:07:58.446Z,46.55
2019-03-23T12:10:28.061Z,47.73
2019-03-23T12:12:57.670Z,48.87
2019-03-23T12:15:27.272Z,49.18
2019-03-23T12:17:56.936Z,48.30
2019-03-23T12:20:26.533Z,47.58
2019-03-23T12:22:56.157Z,46.28
2019-03-23T12:25:25.787Z,48.73
2019-03-23T12:27:55.389Z,50.30
2019-03-23T12:30:25.030Z,49.00
2019-03-23T12:32:54.627Z,47.23
2019-03-23T12:35:24.248Z,48.17
2019-03-23T12:37:55.496Z,47.83
2019-03-23T12:40:25.106Z,48.55
2019-03-23T12:42:54.708Z,47.85
2019-03-23T12:45:24.319Z,47.20
2019-03-23T12:47:53.939Z,46.58
2019-03-23T12:50:23.566Z,48.33
2019-03-23T12:52:53.249Z,48.15
2019-03-23T12:55:22.975Z,47.00
2019-03-23T12:57:52.629Z,49.18
2019-03-23T13:00:22.332Z,46.45
2019-03-23T13:02:51.963Z,48.30
2019-03-23T13:05:21.631Z,48.33
2019-03-23T13:07:51.245Z,48.73
2019-03-23T13:10:20.879Z,45.63
2019-03-23T13:12:50.515Z,48.05
2019-03-23T13:15:20.159Z,47.62
2019-03-23T13:17:49.817Z,48.33
2019-03-23T13:20:19.437Z,47.55
2019-03-23T13:22:49.085Z,47.60
2019-03-23T13:25:18.737Z,45.90
2019-03-23T13:27:48.347Z,53.02
2019-03-23T13:30:18.860Z,48.48
2019-03-23T13:32:48.538Z,46.05
2019-03-23T13:35:18.132Z,46.80
2019-03-23T13:37:47.789Z,45.63
2019-03-23T13:40:17.442Z,47.62
2019-03-23T13:42:47.101Z,47.35
2019-03-23T13:45:16.983Z,48.52
2019-03-23T13:47:46.613Z,50.03
2019-03-23T13:50:21.971Z,46.35
2019-03-23T13:52:51.578Z,48.02
2019-03-23T13:55:26.374Z,46.40
2019-03-23T13:57:56.160Z,45.65
2019-03-23T14:00:25.783Z,46.40
2019-03-23T14:02:55.422Z,45.35
2019-03-23T14:05:25.057Z,45.20
2019-03-23T14:07:54.747Z,47.08
2019-03-23T14:10:24.454Z,46.65
2019-03-23T14:12:54.072Z,47.27
2019-03-23T14:15:23.779Z,47.13
2019-03-23T14:17:53.397Z,47.43
2019-03-23T14:20:23.053Z,47.10
2019-03-23T14:23:02.131Z,49.15
2019-03-23T14:25:24.032Z,46.18
2019-03-23T14:27:53.666Z,45.67
2019-03-23T14:30:23.266Z,43.00
2019-03-23T14:32:52.891Z,44.50
2019-03-23T14:35:22.511Z,44.08
2019-03-23T14:37:52.134Z,44.50
2019-03-23T14:40:21.811Z,46.75
2019-03-23T14:42:51.764Z,45.80
2019-03-23T14:45:21.611Z,44.88
2019-03-23T14:47:51.242Z,46.40
2019-03-23T14:50:20.914Z,45.70
2019-03-23T14:52:50.595Z,46.02
2019-03-23T14:55:20.257Z,44.27
2019-03-23T14:57:49.887Z,46.58
2019-03-23T15:00:25.090Z,43.52
2019-03-23T15:02:54.718Z,44.63
2019-03-23T15:05:24.371Z,46.55
2019-03-23T15:07:54.121Z,44.95
2019-03-23T15:10:23.808Z,45.38
2019-03-23T15:12:53.646Z,46.40
2019-03-23T15:15:23.251Z,44.70
2019-03-23T15:17:53.016Z,47.53
2019-03-23T15:20:22.563Z,46.20
2019-03-23T15:22:52.177Z,45.98
2019-03-23T15:25:21.860Z,55.98
2019-03-23T15:27:51.586Z,48.33
2019-03-23T15:30:21.255Z,48.48
2019-03-23T15:32:50.882Z,48.38
2019-03-23T15:35:20.584Z,46.20
2019-03-23T15:37:50.311Z,45.43
2019-03-23T15:40:19.916Z,45.28
2019-03-23T15:42:49.638Z,45.95
2019-03-23T15:45:19.227Z,47.80
2019-03-23T15:47:48.830Z,48.25
2019-03-23T15:50:18.477Z,45.52
2019-03-23T15:52:48.042Z,47.35
2019-03-23T15:55:17.690Z,44.67
2019-03-23T15:57:47.307Z,43.78
2019-03-23T16:00:17.158Z,44.67
2019-03-23T16:02:46.770Z,44.15
2019-03-23T16:05:16.459Z,44.85
2019-03-23T16:07:46.131Z,42.08
2019-03-23T16:10:15.769Z,43.70
2019-03-23T16:12:45.364Z,43.80
2019-03-23T16:15:16.223Z,42.23
2019-03-23T16:17:46.081Z,44.25
2019-03-23T16:20:17.927Z,44.10
2019-03-23T16:22:47.486Z,43.95
2019-03-23T16:25:17.119Z,41.90
2019-03-23T16:27:46.726Z,43.68
2019-03-23T16:30:19.511Z,42.23
2019-03-23T16:32:49.151Z,43.42
2019-03-23T16:35:18.774Z,45.17
2019-03-23T16:37:48.387Z,44.25
2019-03-23T16:40:18.014Z,43.60
2019-03-23T16:42:47.653Z,45.52
2019-03-23T16:45:17.560Z,45.23
2019-03-23T16:47:47.167Z,44.77
2019-03-23T16:50:16.872Z,45.67
2019-03-23T16:52:46.478Z,46.10
2019-03-23T16:55:16.116Z,44.85
2019-03-23T16:57:45.716Z,41.88
2019-03-23T17:00:20.362Z,41.68
2019-03-23T17:02:49.992Z,43.75
2019-03-23T17:05:19.678Z,44.03
2019-03-23T17:07:49.285Z,43.58
2019-03-23T17:10:18.939Z,44.45
2019-03-23T17:12:55.305Z,45.78
2019-03-23T17:15:19.935Z,44.18
2019-03-23T17:17:49.527Z,43.68
2019-03-23T17:20:19.215Z,47.00
2019-03-23T17:22:48.819Z,44.85
2019-03-23T17:25:18.825Z,42.67
2019-03-23T17:27:48.554Z,40.88
2019-03-23T17:30:19.275Z,40.73
2019-03-23T17:32:49.018Z,40.63
2019-03-23T17:35:18.712Z,37.98
2019-03-23T17:37:48.362Z,36.00
2019-03-23T17:40:18.001Z,36.23
2019-03-23T17:42:49.471Z,35.92
2019-03-23T17:45:19.170Z,33.78
2019-03-23T17:47:48.905Z,31.42
2019-03-23T17:50:18.743Z,40.20
2019-03-23T17:52:48.357Z,32.98
2019-03-23T17:55:18.207Z,32.73
2019-03-23T17:57:47.913Z,34.65
2019-03-23T18:00:17.928Z,29.77
2019-03-23T18:02:47.670Z,29.35
2019-03-23T18:05:17.278Z,29.70
2019-03-23T18:07:46.938Z,27.50
2019-03-23T18:10:19.611Z,27.80
2019-03-23T18:12:49.251Z,26.42
2019-03-23T18:15:18.954Z,26.93
2019-03-23T18:17:48.571Z,28.20
2019-03-23T18:20:18.487Z,27.65
2019-03-23T18:22:48.110Z,25.75
2019-03-23T18:25:17.792Z,26.50
2019-03-23T18:27:47.767Z,25.90
2019-03-23T18:30:34.425Z,25.80
2019-03-23T18:33:05.319Z,26.73
2019-03-23T18:35:35.144Z,25.27
2019-03-23T18:38:05.617Z,26.82
2019-03-23T18:40:35.559Z,27.48
2019-03-23T18:43:05.870Z,24.98
2019-03-23T18:45:35.772Z,25.85
2019-03-23T18:48:05.690Z,24.85
2019-03-23T18:50:35.335Z,24.55
2019-03-23T18:53:05.512Z,24.67
2019-03-23T18:55:35.115Z,23.42
2019-03-23T18:58:04.998Z,24.25
2019-03-23T19:00:37.506Z,24.18
2019-03-23T19:03:07.415Z,27.13
2019-03-23T19:05:37.226Z,25.37
2019-03-23T19:08:07.233Z,23.92
2019-03-23T19:10:37.149Z,26.70
2019-03-23T19:13:06.893Z,25.35
2019-03-23T19:15:36.487Z,26.25
2019-03-23T19:18:07.107Z,26.87
2019-03-23T19:20:38.166Z,27.00
2019-03-23T19:23:07.902Z,28.27
2019-03-23T19:25:37.615Z,26.57
2019-03-23T19:28:07.620Z,26.48
2019-03-23T19:30:37.775Z,27.30
2019-03-23T19:33:07.485Z,26.30
2019-03-23T19:35:37.223Z,29.90
2019-03-23T19:38:07.379Z,28.60
2019-03-23T19:40:37.168Z,30.48
2019-03-23T19:43:06.800Z,33.65
2019-03-23T19:45:36.438Z,38.55
2019-03-23T19:48:06.199Z,28.17
2019-03-23T19:50:35.898Z,29.42
2019-03-23T19:53:05.706Z,27.82
2019-03-23T19:55:35.351Z,28.02
2019-03-23T19:58:05.238Z,27.85
2019-03-23T20:00:34.913Z,26.97
2019-03-23T20:03:04.690Z,29.05
2019-03-23T20:05:34.498Z,29.10
2019-03-23T20:08:04.495Z,32.88
2019-03-23T20:10:34.117Z,28.12
2019-03-23T20:13:03.871Z,28.23
2019-03-23T20:15:33.652Z,33.15
2019-03-23T20:18:03.406Z,26.77
2019-03-23T20:20:33.109Z,26.62
2019-03-23T20:23:02.830Z,27.10
2019-03-23T20:25:32.666Z,27.87
2019-03-23T20:28:02.285Z,27.45
2019-03-23T20:30:32.221Z,27.25
2019-03-23T20:33:01.839Z,27.70
2019-03-23T20:35:31.557Z,29.10
2019-03-23T20:38:03.632Z,29.98
2019-03-23T20:40:33.409Z,28.10
2019-03-23T20:43:03.117Z,23.18
2019-03-23T20:45:32.940Z,22.90
2019-03-23T20:48:03.072Z,22.35
2019-03-23T20:50:32.877Z,21.02
2019-03-23T20:53:03.162Z,18.77
2019-03-23T20:55:32.878Z,18.05
2019-03-23T20:58:03.349Z,17.80
2019-03-23T21:00:32.964Z,16.35
2019-03-23T21:03:03.694Z,21.37
2019-03-23T21:05:34.378Z,13.40
2019-03-23T21:08:04.187Z,12.28
2019-03-23T21:10:33.826Z,11.03
2019-03-23T21:13:03.446Z,10.10
2019-03-23T21:15:33.172Z,9.78
2019-03-23T21:18:02.833Z,8.50
2019-03-23T21:20:32.456Z,8.35
2019-03-23T21:23:02.353Z,8.13
2019-03-23T21:25:33.479Z,7.10
2019-03-23T21:28:03.171Z,5.70
2019-03-23T21:30:32.952Z,6.22
2019-03-23T21:33:02.691Z,6.15
2019-03-23T21:35:32.314Z,5.17
2019-03-23T21:38:02.340Z,5.20
2019-03-23T21:40:34.858Z,6.37
2019-03-23T21:43:03.441Z,5.30
2019-03-23T21:45:33.107Z,4.45
2019-03-23T21:48:02.713Z,4.67
2019-03-23T21:50:32.421Z,4.92
2019-03-23T21:53:02.180Z,4.30
2019-03-23T21:55:31.795Z,4.40
2019-03-23T21:58:01.471Z,4.83
2019-03-23T22:00:33.602Z,4.80
2019-03-23T22:03:03.911Z,4.58
2019-03-23T22:05:33.659Z,4.00
2019-03-23T22:08:03.252Z,4.55
2019-03-23T22:10:33.351Z,4.90
2019-03-23T22:13:03.018Z,4.17
2019-03-23T22:15:34.023Z,4.35
2019-03-23T22:18:05.341Z,3.70
2019-03-23T22:20:34.957Z,4.65
2019-03-23T22:23:05.161Z,5.20
2019-03-23T22:25:34.939Z,4.72
2019-03-23T22:28:04.666Z,5.03
2019-03-23T22:30:34.333Z,4.25
2019-03-23T22:33:04.043Z,4.40
2019-03-23T22:35:33.673Z,5.15
2019-03-23T22:38:03.292Z,3.90
2019-03-23T22:40:32.986Z,4.42
2019-03-23T22:43:04.176Z,4.83
2019-03-23T22:45:35.746Z,3.85
2019-03-23T22:48:05.136Z,4.00
2019-03-23T22:50:34.750Z,4.85
2019-03-23T22:53:04.746Z,4.17
2019-03-23T22:55:34.360Z,3.92
2019-03-23T22:58:04.073Z,4.67
2019-03-23T23:00:44.105Z,4.05
2019-03-23T23:03:13.879Z,4.15
2019-03-23T23:05:44.128Z,3.98
2019-03-23T23:08:13.815Z,3.77
2019-03-23T23:10:43.496Z,4.00
2019-03-23T23:13:13.179Z,4.28
2019-03-23T23:15:42.871Z,4.03
2019-03-23T23:18:12.458Z,4.80
2019-03-23T23:20:42.065Z,4.10
2019-03-23T23:23:11.733Z,4.37
2019-03-23T23:25:41.414Z,3.87
2019-03-23T23:28:11.110Z,3.80
2019-03-23T23:30:40.702Z,4.92
2019-03-23T23:33:10.331Z,3.58
2019-03-23T23:35:39.926Z,3.40
2019-03-23T23:38:09.571Z,4.15
2019-03-23T23:40:39.177Z,3.60
2019-03-23T23:43:08.846Z,3.58
2019-03-23T23:45:38.471Z,4.10
2019-03-23T23:48:08.092Z,4.15
2019-03-23T23:50:37.707Z,3.62
2019-03-23T23:53:07.315Z,4.90
2019-03-23T23:55:36.918Z,3.92
2019-03-23T23:58:06.521Z,4.72
